Niles, Indiana
Current Conditions -  °F | °C
As of 10:53 AM on Wednesday 28 Jan 2015 (Local Time) from KMIE Reporting Station
Clear Clear  
Wind Chill: 15°   Ceiling: Unl
Heat Index: 24°   Visibility: 8mi
Dew Point: 14°   Wind: 8mph
Humidity: 65%   Direction: 150°SSE
Pressure: 30.33"   Gusts: NA
Location:  40.3453°N, 85.3353°W
Report Text: KMIE 281553Z 15007KT 8SM CLR M04/M10 A3033 RMK AO2 SLP283 T10441100
Loading
Personal Weather Stations






























Interactive Weather Map New forecast layout! Learn more

10-Day Weather Forecast

Advertisements
Track Severe Weather on mobile